Gaz Unity — HOEJ — position and weather

sailwx.info

Track history (hours):
 
Tides and Currents Weather Stations Pressure Air Temp Water Temp Dewpoint Dewpoint Depression Visibility Wind Speed Wind Dir Waves Ship Positions

Gaz Unity

Last reported at 2017-Nov-19 22:18 UTC. Time now 2017-Nov-22 18:22 UTC.
Position N 34°36' E 033°05'.

Length 228 m; draft 10.9 m.

Type: Ship (hazmat cat D). MMSI: 353956000.

Date/timePositionNaut miles runAvg speedWind from/ knotsBaromVisibWave heightAir tempDewpointWater temp
2017-Nov-19 22:18N 34°36' E 033°05'310.4
2017-Nov-19 22:00N 34°39' E 033°05'1 1.6
2017-Nov-19 21:29N 34°40' E 033°04'0 0.1
2017-Nov-19 20:59N 34°40' E 033°04'0 0.0
2017-Nov-19 20:26N 34°40' E 033°04'0 0.0
2017-Nov-19 19:59N 34°40' E 033°04'0 0.0
2017-Nov-19 19:29N 34°40' E 033°04'0 0.0
2017-Nov-19 17:32N 34°40' E 033°04'0 0.1
2017-Nov-19 17:23N 34°40' E 033°04'0 0.1
2017-Nov-19 16:59N 34°40' E 033°04'0 0.0
2017-Nov-19 16:29N 34°40' E 033°05'0 0.1
2017-Nov-19 15:56N 34°40' E 033°05'0 0.0
2017-Nov-19 15:29N 34°40' E 033°05'0 0.1
2017-Nov-19 15:00N 34°40' E 033°05'0 0.0
2017-Nov-19 14:30N 34°40' E 033°05'0 0.0
2017-Nov-19 14:00N 34°40' E 033°05'0 0.0
2017-Nov-19 13:30N 34°40' E 033°05'0 0.1
2017-Nov-19 12:56N 34°40' E 033°04'0 0.7
2017-Nov-19 12:30N 34°40' E 033°05'1 1.7
2017-Nov-19 12:00N 34°39' E 033°06'53 2.4
2017-Nov-18 13:59N 33°47' E 033°17'0 0.5
2017-Nov-18 13:27N 33°48' E 033°17'0 0.4
2017-Nov-18 12:55N 33°48' E 033°18'0 0.4
2017-Nov-18 12:30N 33°48' E 033°18'0 0.5
2017-Nov-18 12:00N 33°48' E 033°18'0 0.5
2017-Nov-18 11:30N 33°48' E 033°18'7 1.3
2017-Nov-18 06:30N 33°53' E 033°12'0 0.8
2017-Nov-18 06:00N 33°53' E 033°12'0 0.8
2017-Nov-18 05:30N 33°53' E 033°12'4 0.8
2017-Nov-18 00:11N 33°58' E 033°13'0 0.9
2017-Nov-17 23:59N 33°58' E 033°13'1 0.9
2017-Nov-17 22:59N 33°59' E 033°13'0 0.9
2017-Nov-17 22:30N 33°59' E 033°12'0 0.8
2017-Nov-17 22:00N 33°60' E 033°12'0 0.8
2017-Nov-17 21:30N 33°60' E 033°12'0 0.7
2017-Nov-17 21:00N 34°00' E 033°12'1 0.6
2017-Nov-17 19:21N 34°01' E 033°12'0 0.6
2017-Nov-17 19:00N 34°01' E 033°12'1 0.5
2017-Nov-17 17:25N 34°02' E 033°12'0 0.5
2017-Nov-17 17:00N 34°02' E 033°12'0 0.4
2017-Nov-17 16:30N 34°03' E 033°12'0 0.4
2017-Nov-17 16:00N 34°03' E 033°12'0 0.5
2017-Nov-17 15:30N 34°03' E 033°12'0 0.6
2017-Nov-17 15:00N 34°03' E 033°12'0 0.7
2017-Nov-17 14:30N 34°04' E 033°12'1 0.9
2017-Nov-17 13:54N 34°04' E 033°12'1 3.1
2017-Nov-17 13:30N 34°05' E 033°10'7 5.3
2017-Nov-17 12:15N 34°05' E 033°02'9 0.6
2017-Nov-16 20:00N 34°13' E 032°56'0 0.5
2017-Nov-16 19:21N 34°13' E 032°56'0 0.5
2017-Nov-16 18:33N 34°14' E 032°55'0 0.6
2017-Nov-16 18:30N 34°14' E 032°55'0 0.6
2017-Nov-16 18:00N 34°14' E 032°55'24 1.1
2017-Nov-15 19:50N 34°36' E 033°06'410.3
2017-Nov-15 19:26N 34°40' E 033°06'1 0.2
2017-Nov-15 14:55N 34°41' E 033°06'0 0.1
2017-Nov-15 14:28N 34°41' E 033°06'0 0.0
2017-Nov-15 13:52N 34°41' E 033°06'0 0.0
2017-Nov-15 12:10N 34°41' E 033°06'1 0.1
2017-Nov-14 22:10N 34°40' E 033°05'1 3.7
2017-Nov-14 21:58N 34°39' E 033°05'  
Track history (hours):
 
Tides and Currents Weather Stations Pressure Air Temp Water Temp Dewpoint Dewpoint Depression Visibility Wind Speed Wind Dir Waves Ship Positions

Gaz Unity

Last reported at 2017-Nov-19 22:18 UTC. Time now 2017-Nov-22 18:22 UTC.
Position N 34°36' E 033°05'.

Length 228 m; draft 10.9 m.

Type: Ship (hazmat cat D). MMSI: 353956000.

Date/timePositionNaut miles runAvg speedWind from/ knotsBaromVisibWave heightAir tempDewpointWater temp
2017-Nov-19 22:18N 34°36' E 033°05'310.4
2017-Nov-19 22:00N 34°39' E 033°05'1 1.6
2017-Nov-19 21:29N 34°40' E 033°04'0 0.1
2017-Nov-19 20:59N 34°40' E 033°04'0 0.0
2017-Nov-19 20:26N 34°40' E 033°04'0 0.0
2017-Nov-19 19:59N 34°40' E 033°04'0 0.0
2017-Nov-19 19:29N 34°40' E 033°04'0 0.0
2017-Nov-19 17:32N 34°40' E 033°04'0 0.1
2017-Nov-19 17:23N 34°40' E 033°04'0 0.1
2017-Nov-19 16:59N 34°40' E 033°04'0 0.0
2017-Nov-19 16:29N 34°40' E 033°05'0 0.1
2017-Nov-19 15:56N 34°40' E 033°05'0 0.0
2017-Nov-19 15:29N 34°40' E 033°05'0 0.1
2017-Nov-19 15:00N 34°40' E 033°05'0 0.0
2017-Nov-19 14:30N 34°40' E 033°05'0 0.0
2017-Nov-19 14:00N 34°40' E 033°05'0 0.0
2017-Nov-19 13:30N 34°40' E 033°05'0 0.1
2017-Nov-19 12:56N 34°40' E 033°04'0 0.7
2017-Nov-19 12:30N 34°40' E 033°05'1 1.7
2017-Nov-19 12:00N 34°39' E 033°06'53 2.4
2017-Nov-18 13:59N 33°47' E 033°17'0 0.5
2017-Nov-18 13:27N 33°48' E 033°17'0 0.4
2017-Nov-18 12:55N 33°48' E 033°18'0 0.4
2017-Nov-18 12:30N 33°48' E 033°18'0 0.5
2017-Nov-18 12:00N 33°48' E 033°18'0 0.5
2017-Nov-18 11:30N 33°48' E 033°18'7 1.3
2017-Nov-18 06:30N 33°53' E 033°12'0 0.8
2017-Nov-18 06:00N 33°53' E 033°12'0 0.8
2017-Nov-18 05:30N 33°53' E 033°12'4 0.8
2017-Nov-18 00:11N 33°58' E 033°13'0 0.9
2017-Nov-17 23:59N 33°58' E 033°13'1 0.9
2017-Nov-17 22:59N 33°59' E 033°13'0 0.9
2017-Nov-17 22:30N 33°59' E 033°12'0 0.8
2017-Nov-17 22:00N 33°60' E 033°12'0 0.8
2017-Nov-17 21:30N 33°60' E 033°12'0 0.7
2017-Nov-17 21:00N 34°00' E 033°12'1 0.6
2017-Nov-17 19:21N 34°01' E 033°12'0 0.6
2017-Nov-17 19:00N 34°01' E 033°12'1 0.5
2017-Nov-17 17:25N 34°02' E 033°12'0 0.5
2017-Nov-17 17:00N 34°02' E 033°12'0 0.4
2017-Nov-17 16:30N 34°03' E 033°12'0 0.4
2017-Nov-17 16:00N 34°03' E 033°12'0 0.5
2017-Nov-17 15:30N 34°03' E 033°12'0 0.6
2017-Nov-17 15:00N 34°03' E 033°12'0 0.7
2017-Nov-17 14:30N 34°04' E 033°12'1 0.9
2017-Nov-17 13:54N 34°04' E 033°12'1 3.1
2017-Nov-17 13:30N 34°05' E 033°10'7 5.3
2017-Nov-17 12:15N 34°05' E 033°02'9 0.6
2017-Nov-16 20:00N 34°13' E 032°56'0 0.5
2017-Nov-16 19:21N 34°13' E 032°56'0 0.5
2017-Nov-16 18:33N 34°14' E 032°55'0 0.6
2017-Nov-16 18:30N 34°14' E 032°55'0 0.6
2017-Nov-16 18:00N 34°14' E 032°55'24 1.1
2017-Nov-15 19:50N 34°36' E 033°06'410.3
2017-Nov-15 19:26N 34°40' E 033°06'1 0.2
2017-Nov-15 14:55N 34°41' E 033°06'0 0.1
2017-Nov-15 14:28N 34°41' E 033°06'0 0.0
2017-Nov-15 13:52N 34°41' E 033°06'0 0.0
2017-Nov-15 12:10N 34°41' E 033°06'1 0.1
2017-Nov-14 22:10N 34°40' E 033°05'1 3.7
2017-Nov-14 21:58N 34°39' E 033°05'  

Dump ship's entire track history